sensor_id;sensor_type;location;lat;lon;timestamp;pressure;altitude;pressure_sealevel;temperature;humidity
7836;BME280;3963;42.658;23.298;2023-06-01T00:00:17;110831.34;;;-144.44;100.00
7836;BME280;3963;42.658;23.298;2023-06-01T00:02:44;110831.34;;;-144.44;100.00
7836;BME280;3963;42.658;23.298;2023-06-01T00:05:11;110831.34;;;-144.44;100.00
7836;BME280;3963;42.658;23.298;2023-06-01T00:07:38;110831.34;;;-144.44;100.00
7836;BME280;3963;42.658;23.298;2023-06-01T00:10:06;110831.34;;;-144.44;100.00
7836;BME280;3963;42.658;23.298;2023-06-01T00:12:33;110831.34;;;-144.44;100.00
7836;BME280;3963;42.658;23.298;2023-06-01T00:15:00;110831.34;;;-144.44;100.00
7836;BME280;3963;42.658;23.298;2023-06-01T00:17:27;110831.34;;;-144.44;100.00
7836;BME280;3963;42.658;23.298;2023-06-01T00:19:56;110831.34;;;-144.44;100.00
7836;BME280;3963;42.658;23.298;2023-06-01T00:22:26;110831.34;;;-144.44;100.00
7836;BME280;3963;42.658;23.298;2023-06-01T00:24:54;110831.34;;;-144.44;100.00
7836;BME280;3963;42.658;23.298;2023-06-01T00:27:22;110831.34;;;-144.44;100.00
7836;BME280;3963;42.658;23.298;2023-06-01T00:29:49;110831.34;;;-144.44;100.00
7836;BME280;3963;42.658;23.298;2023-06-01T00:32:16;110831.34;;;-144.44;100.00
7836;BME280;3963;42.658;23.298;2023-06-01T00:34:43;110831.34;;;-144.44;100.00
7836;BME280;3963;42.658;23.298;2023-06-01T00:37:09;110831.34;;;-144.44;100.00
7836;BME280;3963;42.658;23.298;2023-06-01T00:39:36;110831.34;;;-144.44;100.00
7836;BME280;3963;42.658;23.298;2023-06-01T00:42:03;110831.34;;;-144.44;100.00
7836;BME280;3963;42.658;23.298;2023-06-01T00:44:32;110831.34;;;-144.44;100.00
7836;BME280;3963;42.658;23.298;2023-06-01T00:46:59;110831.34;;;-144.44;100.00
7836;BME280;3963;42.658;23.298;2023-06-01T00:49:26;110831.34;;;-144.44;100.00
7836;BME280;3963;42.658;23.298;2023-06-01T00:51:53;110831.34;;;-144.44;100.00
7836;BME280;3963;42.658;23.298;2023-06-01T00:54:20;110831.34;;;-144.44;100.00
7836;BME280;3963;42.658;23.298;2023-06-01T00:56:47;110831.34;;;-144.44;100.00
7836;BME280;3963;42.658;23.298;2023-06-01T00:59:15;110831.34;;;-144.44;100.00
7836;BME280;3963;42.658;23.298;2023-06-01T01:01:43;110831.34;;;-144.44;100.00
7836;BME280;3963;42.658;23.298;2023-06-01T01:04:09;110831.34;;;-144.44;100.00
7836;BME280;3963;42.658;23.298;2023-06-01T01:06:45;110831.34;;;-144.44;100.00
7836;BME280;3963;42.658;23.298;2023-06-01T01:09:22;110831.34;;;-144.44;100.00
7836;BME280;3963;42.658;23.298;2023-06-01T01:11:52;110831.34;;;-144.44;100.00
7836;BME280;3963;42.658;23.298;2023-06-01T01:14:27;110831.34;;;-144.44;100.00
7836;BME280;3963;42.658;23.298;2023-06-01T01:17:02;110831.34;;;-144.44;100.00
7836;BME280;3963;42.658;23.298;2023-06-01T01:19:50;110831.34;;;-144.44;100.00
7836;BME280;3963;42.658;23.298;2023-06-01T01:22:25;110831.34;;;-144.44;100.00
7836;BME280;3963;42.658;23.298;2023-06-01T01:25:08;110831.34;;;-144.44;100.00
7836;BME280;3963;42.658;23.298;2023-06-01T01:27:56;110831.34;;;-144.44;100.00
7836;BME280;3963;42.658;23.298;2023-06-01T01:30:29;110831.34;;;-144.44;100.00
7836;BME280;3963;42.658;23.298;2023-06-01T01:32:59;110831.34;;;-144.44;100.00
7836;BME280;3963;42.658;23.298;2023-06-01T01:35:29;110831.34;;;-144.44;100.00
7836;BME280;3963;42.658;23.298;2023-06-01T01:37:57;110831.34;;;-144.44;100.00
7836;BME280;3963;42.658;23.298;2023-06-01T01:40:24;110831.34;;;-144.44;100.00
7836;BME280;3963;42.658;23.298;2023-06-01T01:42:51;110831.34;;;-144.44;100.00
7836;BME280;3963;42.658;23.298;2023-06-01T01:45:19;110831.34;;;-144.44;100.00
7836;BME280;3963;42.658;23.298;2023-06-01T01:47:53;110831.34;;;-144.44;100.00
7836;BME280;3963;42.658;23.298;2023-06-01T01:50:23;110831.34;;;-144.44;100.00
7836;BME280;3963;42.658;23.298;2023-06-01T01:52:53;110831.34;;;-144.44;100.00
7836;BME280;3963;42.658;23.298;2023-06-01T01:55:23;110831.34;;;-144.44;100.00
7836;BME280;3963;42.658;23.298;2023-06-01T01:57:50;110831.34;;;-144.44;100.00
7836;BME280;3963;42.658;23.298;2023-06-01T02:00:19;110831.34;;;-144.44;100.00
7836;BME280;3963;42.658;23.298;2023-06-01T02:02:46;110831.34;;;-144.44;100.00
7836;BME280;3963;42.658;23.298;2023-06-01T02:05:14;110831.34;;;-144.44;100.00
7836;BME280;3963;42.658;23.298;2023-06-01T02:07:41;110831.34;;;-144.44;100.00
7836;BME280;3963;42.658;23.298;2023-06-01T02:10:08;110831.34;;;-144.44;100.00
7836;BME280;3963;42.658;23.298;2023-06-01T02:12:35;110831.34;;;-144.44;100.00
7836;BME280;3963;42.658;23.298;2023-06-01T02:15:03;110831.34;;;-144.44;100.00
7836;BME280;3963;42.658;23.298;2023-06-01T02:17:30;110831.34;;;-144.44;100.00
7836;BME280;3963;42.658;23.298;2023-06-01T02:19:58;110831.34;;;-144.44;100.00
7836;BME280;3963;42.658;23.298;2023-06-01T02:22:26;110831.34;;;-144.44;100.00
7836;BME280;3963;42.658;23.298;2023-06-01T02:24:53;110831.34;;;-144.44;100.00
7836;BME280;3963;42.658;23.298;2023-06-01T02:27:20;110831.34;;;-144.44;100.00
7836;BME280;3963;42.658;23.298;2023-06-01T02:29:48;110831.34;;;-144.44;100.00
7836;BME280;3963;42.658;23.298;2023-06-01T02:32:15;110831.34;;;-144.44;100.00
7836;BME280;3963;42.658;23.298;2023-06-01T02:34:42;110831.34;;;-144.44;100.00
7836;BME280;3963;42.658;23.298;2023-06-01T02:37:08;110831.34;;;-144.44;100.00
7836;BME280;3963;42.658;23.298;2023-06-01T02:39:38;110831.34;;;-144.44;100.00
7836;BME280;3963;42.658;23.298;2023-06-01T02:42:05;110831.34;;;-144.44;100.00
7836;BME280;3963;42.658;23.298;2023-06-01T02:44:32;110831.34;;;-144.44;100.00
7836;BME280;3963;42.658;23.298;2023-06-01T02:46:58;110831.34;;;-144.44;100.00
7836;BME280;3963;42.658;23.298;2023-06-01T02:49:25;110831.34;;;-144.44;100.00
7836;BME280;3963;42.658;23.298;2023-06-01T02:51:52;110831.34;;;-144.44;100.00
7836;BME280;3963;42.658;23.298;2023-06-01T02:54:19;110831.34;;;-144.44;100.00
7836;BME280;3963;42.658;23.298;2023-06-01T02:56:47;110831.34;;;-144.44;100.00
7836;BME280;3963;42.658;23.298;2023-06-01T02:59:14;110831.34;;;-144.44;100.00
7836;BME280;3963;42.658;23.298;2023-06-01T03:01:40;110831.34;;;-144.44;100.00
7836;BME280;3963;42.658;23.298;2023-06-01T03:04:07;110831.34;;;-144.44;100.00
7836;BME280;3963;42.658;23.298;2023-06-01T03:06:36;110831.34;;;-144.44;100.00
7836;BME280;3963;42.658;23.298;2023-06-01T03:09:05;110831.34;;;-144.44;100.00
7836;BME280;3963;42.658;23.298;2023-06-01T03:11:38;110831.34;;;-144.44;100.00
7836;BME280;3963;42.658;23.298;2023-06-01T03:14:07;110831.34;;;-144.44;100.00
7836;BME280;3963;42.658;23.298;2023-06-01T03:16:34;110831.34;;;-144.44;100.00
7836;BME280;3963;42.658;23.298;2023-06-01T03:19:01;110831.34;;;-144.44;100.00
7836;BME280;3963;42.658;23.298;2023-06-01T03:21:28;110831.34;;;-144.44;100.00
7836;BME280;3963;42.658;23.298;2023-06-01T03:23:56;110831.34;;;-144.44;100.00
7836;BME280;3963;42.658;23.298;2023-06-01T03:26:23;110831.34;;;-144.44;100.00
7836;BME280;3963;42.658;23.298;2023-06-01T03:28:51;110831.34;;;-144.44;100.00
7836;BME280;3963;42.658;23.298;2023-06-01T03:31:19;110831.34;;;-144.44;100.00
7836;BME280;3963;42.658;23.298;2023-06-01T03:33:46;110831.34;;;-144.44;100.00
7836;BME280;3963;42.658;23.298;2023-06-01T03:36:12;110831.34;;;-144.44;100.00
7836;BME280;3963;42.658;23.298;2023-06-01T03:38:39;110831.34;;;-144.44;100.00
7836;BME280;3963;42.658;23.298;2023-06-01T03:41:07;110831.34;;;-144.44;100.00
7836;BME280;3963;42.658;23.298;2023-06-01T03:43:33;110831.34;;;-144.44;100.00
7836;BME280;3963;42.658;23.298;2023-06-01T03:46:00;110831.34;;;-144.44;100.00
7836;BME280;3963;42.658;23.298;2023-06-01T03:48:29;110831.34;;;-144.44;100.00
7836;BME280;3963;42.658;23.298;2023-06-01T03:50:56;110831.34;;;-144.44;100.00
7836;BME280;3963;42.658;23.298;2023-06-01T03:53:23;110831.34;;;-144.44;100.00
7836;BME280;3963;42.658;23.298;2023-06-01T03:55:50;110831.34;;;-144.44;100.00
7836;BME280;3963;42.658;23.298;2023-06-01T03:58:17;110831.34;;;-144.44;100.00
7836;BME280;3963;42.658;23.298;2023-06-01T04:00:44;110831.34;;;-144.44;100.00
7836;BME280;3963;42.658;23.298;2023-06-01T04:03:12;110831.34;;;-144.44;100.00
7836;BME280;3963;42.658;23.298;2023-06-01T04:05:41;110831.34;;;-144.44;100.00
7836;BME280;3963;42.658;23.298;2023-06-01T04:08:15;110831.34;;;-144.44;100.00
7836;BME280;3963;42.658;23.298;2023-06-01T04:10:42;110831.34;;;-144.44;100.00
7836;BME280;3963;42.658;23.298;2023-06-01T04:13:09;110831.34;;;-144.44;100.00
7836;BME280;3963;42.658;23.298;2023-06-01T04:15:36;110831.34;;;-144.44;100.00
7836;BME280;3963;42.658;23.298;2023-06-01T04:18:03;110831.34;;;-144.44;100.00
7836;BME280;3963;42.658;23.298;2023-06-01T04:20:31;110831.34;;;-144.44;100.00
7836;BME280;3963;42.658;23.298;2023-06-01T04:22:59;110831.34;;;-144.44;100.00
7836;BME280;3963;42.658;23.298;2023-06-01T04:25:26;110831.34;;;-144.44;100.00
7836;BME280;3963;42.658;23.298;2023-06-01T04:27:54;110831.34;;;-144.44;100.00
7836;BME280;3963;42.658;23.298;2023-06-01T04:30:21;110829.34;;;-144.44;100.00
7836;BME280;3963;42.658;23.298;2023-06-01T04:32:48;110571.50;;;-144.44;100.00
7836;BME280;3963;42.658;23.298;2023-06-01T04:35:15;110313.69;;;-144.44;100.00
7836;BME280;3963;42.658;23.298;2023-06-01T04:37:42;110313.69;;;-144.44;100.00
7836;BME280;3963;42.658;23.298;2023-06-01T04:40:13;110571.50;;;-144.44;100.00
7836;BME280;3963;42.658;23.298;2023-06-01T04:42:41;110055.91;;;-144.44;100.00
7836;BME280;3963;42.658;23.298;2023-06-01T04:45:11;110313.69;;;-144.44;100.00
7836;BME280;3963;42.658;23.298;2023-06-01T04:47:39;110055.91;;;-144.44;100.00
7836;BME280;3963;42.658;23.298;2023-06-01T04:50:06;110571.50;;;-144.44;100.00
7836;BME280;3963;42.658;23.298;2023-06-01T04:52:33;110313.69;;;-144.44;100.00
7836;BME280;3963;42.658;23.298;2023-06-01T04:55:00;109798.13;;;-144.44;100.00
7836;BME280;3963;42.658;23.298;2023-06-01T04:57:29;109798.13;;;-144.44;100.00
7836;BME280;3963;42.658;23.298;2023-06-01T04:59:55;110313.69;;;-144.44;100.00
7836;BME280;3963;42.658;23.298;2023-06-01T05:02:22;109798.13;;;-144.44;100.00
7836;BME280;3963;42.658;23.298;2023-06-01T05:04:50;110313.69;;;-144.44;100.00
7836;BME280;3963;42.658;23.298;2023-06-01T05:07:17;110829.34;;;-144.44;100.00
7836;BME280;3963;42.658;23.298;2023-06-01T05:09:46;110829.34;;;-144.44;100.00
7836;BME280;3963;42.658;23.298;2023-06-01T05:12:13;110571.50;;;-144.44;100.00
7836;BME280;3963;42.658;23.298;2023-06-01T05:14:41;110055.91;;;-144.44;100.00
7836;BME280;3963;42.658;23.298;2023-06-01T05:17:09;109798.13;;;-144.44;100.00
7836;BME280;3963;42.658;23.298;2023-06-01T05:19:36;109798.13;;;-144.44;100.00
7836;BME280;3963;42.658;23.298;2023-06-01T05:22:03;109798.13;;;-144.44;100.00
7836;BME280;3963;42.658;23.298;2023-06-01T05:24:30;107994.28;;;-144.44;100.00
7836;BME280;3963;42.658;23.298;2023-06-01T05:26:57;105676.38;;;-144.44;100.00
7836;BME280;3963;42.658;23.298;2023-06-01T05:29:24;104646.69;;;-144.44;100.00
7836;BME280;3963;42.658;23.298;2023-06-01T05:31:52;105418.94;;;-144.44;100.00
7836;BME280;3963;42.658;23.298;2023-06-01T05:34:19;102845.47;;;-144.44;100.00
7836;BME280;3963;42.658;23.298;2023-06-01T05:36:46;103102.75;;;-144.44;100.00
7836;BME280;3963;42.658;23.298;2023-06-01T05:39:14;101559.47;;;-144.44;100.00
7836;BME280;3963;42.658;23.298;2023-06-01T05:41:41;99245.84;;;-144.44;100.00
7836;BME280;3963;42.658;23.298;2023-06-01T05:44:08;98218.06;;;-144.44;100.00
7836;BME280;3963;42.658;23.298;2023-06-01T05:46:35;96933.75;;;-144.44;100.00
7836;BME280;3963;42.658;23.298;2023-06-01T05:49:03;97447.44;;;-144.44;100.00
7836;BME280;3963;42.658;23.298;2023-06-01T05:51:30;94879.88;;;-144.44;100.00
7836;BME280;3963;42.658;23.298;2023-06-01T05:54:02;96420.19;;;-144.44;100.00
7836;BME280;3963;42.658;23.298;2023-06-01T05:56:29;97961.16;;;-144.44;100.00
7836;BME280;3963;42.658;23.298;2023-06-01T05:58:56;98218.06;;;-144.44;100.00
7836;BME280;3963;42.658;23.298;2023-06-01T06:01:22;101045.19;;;-144.44;100.00
7836;BME280;3963;42.658;23.298;2023-06-01T06:03:49;101559.47;;;-144.44;100.00
7836;BME280;3963;42.658;23.298;2023-06-01T06:06:17;99759.84;;;-144.44;100.00
7836;BME280;3963;42.658;23.298;2023-06-01T06:08:44;95906.66;;;-144.44;100.00
7836;BME280;3963;42.658;23.298;2023-06-01T06:11:11;93340.25;;;-144.44;100.00
7836;BME280;3963;42.658;23.298;2023-06-01T06:13:37;92827.19;;;-144.44;100.00
7836;BME280;3963;42.658;23.298;2023-06-01T06:16:06;87956.94;;;-144.44;100.00
7836;BME280;3963;42.658;23.298;2023-06-01T06:18:33;90263.06;;;-144.44;100.00
7836;BME280;3963;42.658;23.298;2023-06-01T06:21:00;90775.72;;;-144.44;100.00
7836;BME280;3963;42.658;23.298;2023-06-01T06:23:28;90519.38;;;-144.44;100.00
7836;BME280;3963;42.658;23.298;2023-06-01T06:25:55;84628.63;;;-144.44;100.00
7836;BME280;3963;42.658;23.298;2023-06-01T06:28:22;85652.38;;;-144.44;100.00
7836;BME280;3963;42.658;23.298;2023-06-01T06:30:49;77726.22;;;-144.44;100.00
7836;BME280;3963;42.658;23.298;2023-06-01T06:33:16;78237.03;;;-144.44;100.00
7836;BME280;3963;42.658;23.298;2023-06-01T06:35:43;70582.78;;;-144.44;100.00
7836;BME280;3963;42.658;23.298;2023-06-01T06:38:11;80536.66;;;-144.44;100.00
7836;BME280;3963;42.658;23.298;2023-06-01T06:40:40;71857.31;;;-144.44;100.00
7836;BME280;3963;42.658;23.298;2023-06-01T06:43:07;53849.19;;;-144.44;100.00
7836;BME280;3963;42.658;23.298;2023-06-01T06:45:34;51205.19;;;-144.44;100.00
7836;BME280;3963;42.658;23.298;2023-06-01T06:48:01;48701.72;;;-144.44;100.00
7836;BME280;3963;42.658;23.298;2023-06-01T06:50:27;47981.69;;;-144.44;100.00
7836;BME280;3963;42.658;23.298;2023-06-01T06:52:54;47265.78;;;-144.44;100.00
7836;BME280;3963;42.658;23.298;2023-06-01T06:55:21;46931.63;;;-144.44;100.00
7836;BME280;3963;42.658;23.298;2023-06-01T06:57:50;46664.69;;;-144.44;100.00
7836;BME280;3963;42.658;23.298;2023-06-01T07:00:17;46435.38;;;-144.44;100.00
7836;BME280;3963;42.658;23.298;2023-06-01T07:02:44;46225.81;;;-144.44;100.00
7836;BME280;3963;42.658;23.298;2023-06-01T07:05:12;46219.88;;;-144.44;100.00
7836;BME280;3963;42.658;23.298;2023-06-01T07:07:40;45982.66;;;-144.44;100.00
7836;BME280;3963;42.658;23.298;2023-06-01T07:10:07;46004.41;;;-144.44;100.00
7836;BME280;3963;42.658;23.298;2023-06-01T07:12:34;45927.31;;;-144.44;100.00
7836;BME280;3963;42.658;23.298;2023-06-01T07:15:02;45883.84;;;-144.44;100.00
7836;BME280;3963;42.658;23.298;2023-06-01T07:17:29;45868.03;;;-144.44;100.00
7836;BME280;3963;42.658;23.298;2023-06-01T07:19:58;45842.31;;;-144.44;100.00
7836;BME280;3963;42.658;23.298;2023-06-01T07:22:24;45887.78;;;-144.44;100.00
7836;BME280;3963;42.658;23.298;2023-06-01T07:24:51;45929.31;;;-144.44;100.00
7836;BME280;3963;42.658;23.298;2023-06-01T07:27:18;45792.91;;;-144.44;100.00
7836;BME280;3963;42.658;23.298;2023-06-01T07:29:46;45881.84;;;-144.44;100.00
7836;BME280;3963;42.658;23.298;2023-06-01T07:32:14;45798.84;;;-144.44;99.51
7836;BME280;3963;42.658;23.298;2023-06-01T07:34:42;45749.44;;;-144.44;98.41
7836;BME280;3963;42.658;23.298;2023-06-01T07:37:09;45705.94;;;-144.44;98.16
7836;BME280;3963;42.658;23.298;2023-06-01T07:39:36;45723.72;;;-144.44;96.65
7836;BME280;3963;42.658;23.298;2023-06-01T07:42:03;45871.97;;;-144.44;100.00
7836;BME280;3963;42.658;23.298;2023-06-01T07:44:30;45725.72;;;-144.44;94.42
7836;BME280;3963;42.658;23.298;2023-06-01T07:46:56;45717.81;;;-144.44;93.09
7836;BME280;3963;42.658;23.298;2023-06-01T07:49:24;45735.59;;;-144.44;94.23
7836;BME280;3963;42.658;23.298;2023-06-01T07:51:52;45705.94;;;-144.44;88.92
7836;BME280;3963;42.658;23.298;2023-06-01T07:54:18;45670.38;;;-144.44;91.30
7836;BME280;3963;42.658;23.298;2023-06-01T07:56:45;45640.72;;;-144.44;89.60
7836;BME280;3963;42.658;23.298;2023-06-01T07:59:12;45682.22;;;-144.44;90.93
7836;BME280;3963;42.658;23.298;2023-06-01T08:01:39;45634.78;;;-144.44;88.51
7836;BME280;3963;42.658;23.298;2023-06-01T08:04:06;45670.38;;;-144.44;87.93
7836;BME280;3963;42.658;23.298;2023-06-01T08:06:37;45719.78;;;-144.44;89.57
7836;BME280;3963;42.658;23.298;2023-06-01T08:09:04;45640.72;;;-144.44;87.17
7836;BME280;3963;42.658;23.298;2023-06-01T08:11:31;45668.38;;;-144.44;89.21
7836;BME280;3963;42.658;23.298;2023-06-01T08:13:58;45713.84;;;-144.44;88.47
7836;BME280;3963;42.658;23.298;2023-06-01T08:16:27;45735.59;;;-144.44;89.24
7836;BME280;3963;42.658;23.298;2023-06-01T08:18:54;45668.38;;;-144.44;84.00
7836;BME280;3963;42.658;23.298;2023-06-01T08:21:22;45729.66;;;-144.44;89.22
7836;BME280;3963;42.658;23.298;2023-06-01T08:23:50;45727.69;;;-144.44;87.68
7836;BME280;3963;42.658;23.298;2023-06-01T08:26:18;45725.72;;;-144.44;85.25
7836;BME280;3963;42.658;23.298;2023-06-01T08:28:45;45785.00;;;-144.44;87.03
7836;BME280;3963;42.658;23.298;2023-06-01T08:31:17;45753.38;;;-144.44;77.97
7836;BME280;3963;42.658;23.298;2023-06-01T08:33:44;45771.16;;;-144.44;81.38
7836;BME280;3963;42.658;23.298;2023-06-01T08:36:10;45713.84;;;-144.44;79.14
7836;BME280;3963;42.658;23.298;2023-06-01T08:38:37;45632.81;;;-144.44;79.87
7836;BME280;3963;42.658;23.298;2023-06-01T08:41:11;45601.19;;;-144.44;86.05
7836;BME280;3963;42.658;23.298;2023-06-01T08:43:40;45674.31;;;-144.44;84.42
7836;BME280;3963;42.658;23.298;2023-06-01T08:46:09;45686.19;;;-144.44;82.54
7836;BME280;3963;42.658;23.298;2023-06-01T08:48:38;45666.41;;;-144.44;82.03
7836;BME280;3963;42.658;23.298;2023-06-01T08:51:06;45700.00;;;-144.44;82.10
7836;BME280;3963;42.658;23.298;2023-06-01T08:53:34;45729.66;;;-144.44;76.68
7836;BME280;3963;42.658;23.298;2023-06-01T08:56:01;45737.56;;;-144.44;80.18
7836;BME280;3963;42.658;23.298;2023-06-01T08:58:30;45741.53;;;-144.44;70.20
7836;BME280;3963;42.658;23.298;2023-06-01T09:00:58;45759.31;;;-144.44;68.00
7836;BME280;3963;42.658;23.298;2023-06-01T09:03:25;45777.09;;;-144.44;61.62
7836;BME280;3963;42.658;23.298;2023-06-01T09:05:52;45745.47;;;-144.44;60.19
7836;BME280;3963;42.658;23.298;2023-06-01T09:08:19;45836.41;;;-144.44;59.09
7836;BME280;3963;42.658;23.298;2023-06-01T09:10:47;45883.84;;;-144.44;56.28
7836;BME280;3963;42.658;23.298;2023-06-01T09:13:32;45891.75;;;-144.44;55.31
7836;BME280;3963;42.658;23.298;2023-06-01T09:15:59;45929.31;;;-144.44;58.90
7836;BME280;3963;42.658;23.298;2023-06-01T09:18:26;45909.53;;;-144.44;55.42
7836;BME280;3963;42.658;23.298;2023-06-01T09:20:53;45905.59;;;-144.44;51.69
7836;BME280;3963;42.658;23.298;2023-06-01T09:23:25;45929.31;;;-144.44;54.17
7836;BME280;3963;42.658;23.298;2023-06-01T09:26:05;45955.00;;;-144.44;52.85
7836;BME280;3963;42.658;23.298;2023-06-01T09:28:55;45953.03;;;-144.44;48.24
7836;BME280;3963;42.658;23.298;2023-06-01T09:31:35;45868.03;;;-144.44;51.06
7836;BME280;3963;42.658;23.298;2023-06-01T09:34:02;45792.91;;;-144.44;54.11
7836;BME280;3963;42.658;23.298;2023-06-01T09:36:29;45751.41;;;-144.44;56.46
7836;BME280;3963;42.658;23.298;2023-06-01T09:39:00;45678.28;;;-144.44;56.38
7836;BME280;3963;42.658;23.298;2023-06-01T09:41:43;45622.94;;;-144.44;57.94
7836;BME280;3963;42.658;23.298;2023-06-01T09:44:12;45583.41;;;-144.44;59.24
7836;BME280;3963;42.658;23.298;2023-06-01T09:46:46;45532.00;;;-144.44;59.96
7836;BME280;3963;42.658;23.298;2023-06-01T09:49:18;45530.03;;;-144.44;63.89
7836;BME280;3963;42.658;23.298;2023-06-01T09:51:47;45508.28;;;-144.44;68.62
7836;BME280;3963;42.658;23.298;2023-06-01T09:54:25;45524.09;;;-144.44;70.57
7836;BME280;3963;42.658;23.298;2023-06-01T09:56:52;45506.31;;;-144.44;64.31
7836;BME280;3963;42.658;23.298;2023-06-01T09:59:23;45496.44;;;-144.44;62.20
7836;BME280;3963;42.658;23.298;2023-06-01T10:01:51;45480.63;;;-144.44;64.15
7836;BME280;3963;42.658;23.298;2023-06-01T10:04:21;45494.47;;;-144.44;64.25
7836;BME280;3963;42.658;23.298;2023-06-01T10:06:50;45492.47;;;-144.44;62.49
7836;BME280;3963;42.658;23.298;2023-06-01T10:09:18;45504.34;;;-144.44;59.47
7836;BME280;3963;42.658;23.298;2023-06-01T10:11:47;45508.28;;;-144.44;57.64
7836;BME280;3963;42.658;23.298;2023-06-01T10:14:14;45460.88;;;-144.44;58.32
7836;BME280;3963;42.658;23.298;2023-06-01T10:16:42;45484.56;;;-144.44;58.41
7836;BME280;3963;42.658;23.298;2023-06-01T10:19:10;45443.06;;;-144.44;61.25
7836;BME280;3963;42.658;23.298;2023-06-01T10:21:37;45429.25;;;-144.44;62.05
7836;BME280;3963;42.658;23.298;2023-06-01T10:24:05;45397.63;;;-144.44;64.19
7836;BME280;3963;42.658;23.298;2023-06-01T10:26:38;45409.47;;;-144.44;65.06
7836;BME280;3963;42.658;23.298;2023-06-01T10:29:07;45407.50;;;-144.44;67.06
7836;BME280;3963;42.658;23.298;2023-06-01T10:31:37;45427.25;;;-144.44;67.78
7836;BME280;3963;42.658;23.298;2023-06-01T10:34:06;45393.66;;;-144.44;65.89
7836;BME280;3963;42.658;23.298;2023-06-01T10:37:15;45407.50;;;-144.44;69.75
7836;BME280;3963;42.658;23.298;2023-06-01T10:39:43;45417.38;;;-144.44;68.53
7836;BME280;3963;42.658;23.298;2023-06-01T10:42:38;45417.38;;;-144.44;68.59
7836;BME280;3963;42.658;23.298;2023-06-01T10:45:35;45425.28;;;-144.44;68.47
7836;BME280;3963;42.658;23.298;2023-06-01T10:48:04;45395.66;;;-144.44;74.33
7836;BME280;3963;42.658;23.298;2023-06-01T10:50:34;45393.66;;;-144.44;73.27
7836;BME280;3963;42.658;23.298;2023-06-01T10:53:23;45395.66;;;-144.44;77.81
7836;BME280;3963;42.658;23.298;2023-06-01T10:56:17;45364.03;;;-144.44;74.07
7836;BME280;3963;42.658;23.298;2023-06-01T10:58:44;45393.66;;;-144.44;71.30
7836;BME280;3963;42.658;23.298;2023-06-01T11:01:18;45399.59;;;-144.44;72.45
7836;BME280;3963;42.658;23.298;2023-06-01T11:03:47;45417.38;;;-144.44;75.69
7836;BME280;3963;42.658;23.298;2023-06-01T11:06:29;45409.47;;;-144.44;70.33
7836;BME280;3963;42.658;23.298;2023-06-01T11:08:58;45389.72;;;-144.44;69.37
7836;BME280;3963;42.658;23.298;2023-06-01T11:14:32;45389.72;;;-144.44;73.55
7836;BME280;3963;42.658;23.298;2023-06-01T11:17:26;45377.84;;;-144.44;76.33
7836;BME280;3963;42.658;23.298;2023-06-01T11:20:01;45423.31;;;-144.44;75.44
7836;BME280;3963;42.658;23.298;2023-06-01T11:22:37;45405.53;;;-144.44;77.12
7836;BME280;3963;42.658;23.298;2023-06-01T11:25:06;45413.44;;;-144.44;72.75
7836;BME280;3963;42.658;23.298;2023-06-01T11:27:34;45452.97;;;-144.44;68.00
7836;BME280;3963;42.658;23.298;2023-06-01T11:30:03;45415.41;;;-144.44;68.58
7836;BME280;3963;42.658;23.298;2023-06-01T11:32:31;45409.47;;;-144.44;67.71
7836;BME280;3963;42.658;23.298;2023-06-01T11:35:15;45399.59;;;-144.44;68.49
7836;BME280;3963;42.658;23.298;2023-06-01T11:37:44;45393.66;;;-144.44;63.28
7836;BME280;3963;42.658;23.298;2023-06-01T11:40:14;45366.00;;;-144.44;61.22
7836;BME280;3963;42.658;23.298;2023-06-01T11:42:41;45381.81;;;-144.44;62.59
7836;BME280;3963;42.658;23.298;2023-06-01T11:45:14;45356.13;;;-144.44;66.66
7836;BME280;3963;42.658;23.298;2023-06-01T11:47:43;45397.63;;;-144.44;80.58
7836;BME280;3963;42.658;23.298;2023-06-01T11:50:20;45387.75;;;-144.44;84.69
7836;BME280;3963;42.658;23.298;2023-06-01T11:52:49;45413.44;;;-144.44;94.79
7836;BME280;3963;42.658;23.298;2023-06-01T11:55:16;45579.44;;;-144.44;100.00
7836;BME280;3963;42.658;23.298;2023-06-01T11:57:43;47212.41;;;-144.44;100.00
7836;BME280;3963;42.658;23.298;2023-06-01T12:00:11;56697.50;;;-144.44;100.00
7836;BME280;3963;42.658;23.298;2023-06-01T12:02:39;72367.25;;;-144.44;100.00
7836;BME280;3963;42.658;23.298;2023-06-01T12:05:08;68799.25;;;-144.44;100.00
7836;BME280;3963;42.658;23.298;2023-06-01T12:07:43;68544.53;;;-144.44;100.00
7836;BME280;3963;42.658;23.298;2023-06-01T12:10:12;77726.22;;;-144.44;100.00
7836;BME280;3963;42.658;23.298;2023-06-01T12:12:42;84116.88;;;-144.44;100.00
7836;BME280;3963;42.658;23.298;2023-06-01T12:15:10;82326.28;;;-144.44;100.00
7836;BME280;3963;42.658;23.298;2023-06-01T12:17:47;85396.41;;;-144.44;100.00
7836;BME280;3963;42.658;23.298;2023-06-01T12:20:25;82837.78;;;-144.44;100.00
7836;BME280;3963;42.658;23.298;2023-06-01T12:22:52;86164.38;;;-144.44;100.00
7836;BME280;3963;42.658;23.298;2023-06-01T12:25:23;79258.91;;;-144.44;100.00
7836;BME280;3963;42.658;23.298;2023-06-01T12:28:02;82326.28;;;-144.44;100.00
7836;BME280;3963;42.658;23.298;2023-06-01T12:30:30;80281.06;;;-144.44;100.00
7836;BME280;3963;42.658;23.298;2023-06-01T12:32:57;82837.78;;;-144.44;100.00
7836;BME280;3963;42.658;23.298;2023-06-01T12:35:24;82326.28;;;-144.44;100.00
7836;BME280;3963;42.658;23.298;2023-06-01T12:38:04;89237.94;;;-144.44;100.00
7836;BME280;3963;42.658;23.298;2023-06-01T12:40:33;91801.31;;;-144.44;100.00
7836;BME280;3963;42.658;23.298;2023-06-01T12:43:00;93083.72;;;-144.44;100.00
7836;BME280;3963;42.658;23.298;2023-06-01T12:45:34;91288.47;;;-144.44;100.00
7836;BME280;3963;42.658;23.298;2023-06-01T12:48:02;94366.59;;;-144.44;100.00
7836;BME280;3963;42.658;23.298;2023-06-01T12:50:30;95393.22;;;-144.44;100.00